Time;durP1;ratioP1;P1;durP2;ratioP2;P2;SDS_P1;SDS_P2;PMS_P1;PMS_P2;Temp;Humidity;BMP_temperature;BMP_pressure;BME280_temperature;BME280_humidity;BME280_pressure;Samples;Min_cycle;Max_cycle;Signal;HPM_P1;HPM_P2
2023/06/24 00:01:31;;;;;;;;;;;;;;;-140.72;56.60;52394.91;4993069;28;19966;-69
2023/06/24 00:03:57;;;;;;;;;;;;;;;-140.72;89.81;52388.84;4983436;28;19945;-70
2023/06/24 00:06:25;;;;;;;;;;;;;;;-140.72;100.00;52413.19;4996437;28;19922;-70
2023/06/24 00:08:51;;;;;;;;;;;;;;;-140.72;100.00;52423.31;4996423;28;19997;-70
2023/06/24 00:11:16;;;;;;;;;;;;;;;-140.72;100.00;52429.41;4986484;28;20402;-70
2023/06/24 00:13:42;;;;;;;;;;;;;;;-140.72;100.00;52390.84;4989600;28;19918;-70
2023/06/24 00:16:07;;;;;;;;;;;;;;;-140.72;100.00;52427.38;4980812;28;19918;-69
2023/06/24 00:18:33;;;;;;;;;;;;;;;-140.72;100.00;52421.28;4991098;28;20375;-70
2023/06/24 00:20:58;;;;;;;;;;;;;;;-140.72;100.00;52421.28;4985708;28;20008;-70
2023/06/24 00:23:27;;;;;;;;;;;;;;;-140.72;100.00;52429.41;4989775;28;19926;-70
2023/06/24 00:25:52;;;;;;;;;;;;;;;-140.72;100.00;52435.50;4983085;28;20005;-70
2023/06/24 00:28:19;;;;;;;;;;;;;;;-140.72;100.00;52423.31;4989410;28;19926;-70
2023/06/24 00:30:44;;;;;;;;;;;;;;;-140.72;100.00;52476.09;4986488;28;19973;-70
2023/06/24 00:33:11;;;;;;;;;;;;;;;-140.72;100.00;52443.63;4993964;28;20004;-70
2023/06/24 00:35:37;;;;;;;;;;;;;;;-140.72;100.00;52431.44;4970149;28;20451;-70
2023/06/24 00:38:02;;;;;;;;;;;;;;;-140.72;100.00;52421.28;4978203;28;19953;-68
2023/06/24 00:40:28;;;;;;;;;;;;;;;-140.72;100.00;52411.16;4981553;28;19926;-69
2023/06/24 00:42:53;;;;;;;;;;;;;;;-140.72;100.00;52419.28;4993778;28;19968;-70
2023/06/24 00:45:19;;;;;;;;;;;;;;;-140.72;100.00;52421.28;4993115;28;19917;-69
2023/06/24 00:47:45;;;;;;;;;;;;;;;-140.72;100.00;52474.06;4983686;28;19926;-69
2023/06/24 00:50:11;;;;;;;;;;;;;;;-140.72;100.00;52455.78;4992448;28;20000;-69
2023/06/24 00:52:42;;;;;;;;;;;;;;;-140.72;100.00;52453.75;4994433;28;19922;-69
2023/06/24 00:55:07;;;;;;;;;;;;;;;-140.72;100.00;52461.88;4994810;28;19917;-70
2023/06/24 00:57:32;;;;;;;;;;;;;;;-140.72;100.00;52437.53;4989056;28;20427;-69
2023/06/24 00:59:59;;;;;;;;;;;;;;;-140.72;100.00;52447.69;4994101;28;19922;-70
2023/06/24 01:02:27;;;;;;;;;;;;;;;-140.72;100.00;52455.78;4993936;28;19917;-69
2023/06/24 01:04:53;;;;;;;;;;;;;;;-140.72;100.00;52463.91;4980814;28;19917;-69
2023/06/24 01:07:18;;;;;;;;;;;;;;;-140.72;100.00;52490.28;4989992;28;19944;-69
2023/06/24 01:09:43;;;;;;;;;;;;;;;-140.72;100.00;52459.84;4987597;28;20254;-69
2023/06/24 01:12:09;;;;;;;;;;;;;;;-140.72;100.00;52453.75;4987198;28;19933;-69
2023/06/24 01:14:35;;;;;;;;;;;;;;;-140.72;100.00;52447.69;4990611;28;19984;-69
2023/06/24 01:17:09;;;;;;;;;;;;;;;-140.72;100.00;52476.09;4986817;28;19921;-69
2023/06/24 01:19:45;;;;;;;;;;;;;;;-140.72;100.00;52502.47;4990845;28;19922;-69
2023/06/24 01:22:13;;;;;;;;;;;;;;;-140.72;100.00;52451.72;4982541;28;19928;-69
2023/06/24 01:24:56;;;;;;;;;;;;;;;-140.72;100.00;52480.16;4992331;28;19925;-69
2023/06/24 01:27:41;;;;;;;;;;;;;;;-140.72;100.00;52504.50;4976102;28;20017;-69
2023/06/24 01:30:09;;;;;;;;;;;;;;;-140.72;100.00;52439.56;4981778;28;20459;-69
2023/06/24 01:32:44;;;;;;;;;;;;;;;-140.72;100.00;52482.16;4989704;28;20351;-69
2023/06/24 01:35:16;;;;;;;;;;;;;;;-140.72;100.00;52470.00;4972907;28;20020;-69
2023/06/24 01:37:43;;;;;;;;;;;;;;;-140.72;100.00;52480.16;4992596;28;19918;-69
2023/06/24 01:40:15;;;;;;;;;;;;;;;-140.72;100.00;52423.31;4983940;28;19918;-69
2023/06/24 01:42:41;;;;;;;;;;;;;;;-140.72;100.00;52496.38;4989652;28;19971;-69
2023/06/24 01:45:08;;;;;;;;;;;;;;;-140.72;100.00;52467.97;4992828;28;19922;-68
2023/06/24 01:47:34;;;;;;;;;;;;;;;-140.72;100.00;52480.16;4975047;28;20064;-69
2023/06/24 01:50:01;;;;;;;;;;;;;;;-140.72;100.00;52459.84;4993084;28;19924;-69
2023/06/24 01:52:27;;;;;;;;;;;;;;;-140.72;100.00;52488.25;4979419;28;19929;-69
2023/06/24 01:54:55;;;;;;;;;;;;;;;-140.72;100.00;52492.31;4981247;28;20417;-68
2023/06/24 01:57:20;;;;;;;;;;;;;;;-140.72;100.00;52470.00;4974742;28;19918;-69
2023/06/24 01:59:46;;;;;;;;;;;;;;;-140.72;100.00;52492.31;4992735;28;19932;-68
2023/06/24 02:02:12;;;;;;;;;;;;;;;-140.72;100.00;52494.34;4972767;28;19918;-69
2023/06/24 02:04:38;;;;;;;;;;;;;;;-140.72;100.00;52476.09;4992286;28;19925;-69
2023/06/24 02:07:04;;;;;;;;;;;;;;;-140.72;100.00;52443.63;4978095;28;19930;-69
2023/06/24 02:09:31;;;;;;;;;;;;;;;-140.72;100.00;52455.78;4991013;28;20357;-69
2023/06/24 02:11:57;;;;;;;;;;;;;;;-140.72;100.00;52508.56;4980863;28;19922;-69
2023/06/24 02:14:23;;;;;;;;;;;;;;;-140.72;100.00;52474.06;4996167;28;19980;-69
2023/06/24 02:16:49;;;;;;;;;;;;;;;-140.72;100.00;52455.78;4990159;28;19922;-69
2023/06/24 02:19:17;;;;;;;;;;;;;;;-140.72;100.00;52451.72;4971208;28;19972;-69
2023/06/24 02:21:44;;;;;;;;;;;;;;;-140.72;100.00;52496.38;4993335;28;19918;-69
2023/06/24 02:24:09;;;;;;;;;;;;;;;-140.72;100.00;52480.16;4992002;28;19945;-69
2023/06/24 02:26:36;;;;;;;;;;;;;;;-140.72;100.00;52472.03;4985580;28;20333;-69
2023/06/24 02:29:03;;;;;;;;;;;;;;;-140.72;100.00;52474.06;4985496;28;19929;-69
2023/06/24 02:31:28;;;;;;;;;;;;;;;-140.72;100.00;52480.16;4981761;28;19997;-69
2023/06/24 02:33:54;;;;;;;;;;;;;;;-140.72;100.00;52476.09;4990312;28;19940;-69
2023/06/24 02:36:19;;;;;;;;;;;;;;;-140.72;100.00;52528.84;4980193;28;20024;-69
2023/06/24 02:38:44;;;;;;;;;;;;;;;-140.72;100.00;52486.22;4981447;28;19917;-70
2023/06/24 02:41:09;;;;;;;;;;;;;;;-140.72;100.00;52494.34;4981879;28;19927;-69
2023/06/24 02:43:36;;;;;;;;;;;;;;;-140.72;100.00;52490.28;4972779;28;19924;-68
2023/06/24 02:46:02;;;;;;;;;;;;;;;-140.72;100.00;52514.63;4974461;28;19921;-68
2023/06/24 02:48:28;;;;;;;;;;;;;;;-140.72;100.00;52502.47;4974336;28;19918;-68
2023/06/24 02:50:54;;;;;;;;;;;;;;;-140.72;100.00;52530.88;4974510;28;19961;-69
2023/06/24 02:53:19;;;;;;;;;;;;;;;-140.72;100.00;52486.22;4986650;28;19965;-69
2023/06/24 02:55:45;;;;;;;;;;;;;;;-140.72;100.00;52492.31;4984405;28;19945;-69
2023/06/24 02:58:11;;;;;;;;;;;;;;;-140.72;100.00;52512.59;4997058;28;19925;-69
2023/06/24 03:00:37;;;;;;;;;;;;;;;-140.72;100.00;52476.09;4994085;28;20263;-69
2023/06/24 03:03:03;;;;;;;;;;;;;;;-140.72;100.00;52480.16;4992845;28;20311;-69
2023/06/24 03:05:30;;;;;;;;;;;;;;;-140.72;100.00;52435.50;4987533;28;19930;-69
2023/06/24 03:07:56;;;;;;;;;;;;;;;-140.72;100.00;52482.16;4991662;28;20276;-69
2023/06/24 03:10:23;;;;;;;;;;;;;;;-140.72;100.00;52518.69;4991084;28;19925;-69
2023/06/24 03:12:48;;;;;;;;;;;;;;;-140.72;100.00;52496.38;4989944;28;20256;-69
2023/06/24 03:15:13;;;;;;;;;;;;;;;-140.72;100.00;52512.59;4990361;28;19925;-69
2023/06/24 03:17:45;;;;;;;;;;;;;;;-140.72;100.00;52494.34;4989957;28;19974;-69
2023/06/24 03:20:10;;;;;;;;;;;;;;;-140.72;100.00;52496.38;4991502;28;19921;-69
2023/06/24 03:22:36;;;;;;;;;;;;;;;-140.72;100.00;52480.16;4974811;28;20001;-70
2023/06/24 03:25:01;;;;;;;;;;;;;;;-140.72;100.00;52498.41;4990916;28;19921;-69
2023/06/24 03:27:26;;;;;;;;;;;;;;;-140.72;100.00;52480.16;4991577;28;19921;-70
2023/06/24 03:29:52;;;;;;;;;;;;;;;-140.72;100.00;52472.03;4993376;28;19925;-70
2023/06/24 03:32:17;;;;;;;;;;;;;;;-140.72;100.00;52494.34;4996182;28;20016;-70
2023/06/24 03:34:42;;;;;;;;;;;;;;;-140.72;100.00;52463.91;4984951;28;20009;-70
2023/06/24 03:37:08;;;;;;;;;;;;;;;-140.72;100.00;52498.41;4992928;28;19926;-69
2023/06/24 03:39:33;;;;;;;;;;;;;;;-140.72;100.00;52467.97;4987642;28;19928;-69
2023/06/24 03:41:58;;;;;;;;;;;;;;;-140.72;100.00;52472.03;4979380;28;19918;-69
2023/06/24 03:44:23;;;;;;;;;;;;;;;-140.72;100.00;52482.16;4995559;28;20355;-69
2023/06/24 03:46:49;;;;;;;;;;;;;;;-140.72;100.00;52486.22;4994803;28;19917;-69
2023/06/24 03:49:14;;;;;;;;;;;;;;;-140.72;100.00;52518.69;4985489;28;20005;-69
2023/06/24 03:51:39;;;;;;;;;;;;;;;-140.72;100.00;52506.53;4990944;28;19988;-69
2023/06/24 03:54:04;;;;;;;;;;;;;;;-140.72;100.00;52484.19;4991367;28;19917;-69
2023/06/24 03:56:30;;;;;;;;;;;;;;;-140.72;100.00;52476.09;4991333;28;19928;-69
2023/06/24 03:58:55;;;;;;;;;;;;;;;-140.72;100.00;52486.22;4992621;28;19917;-69
2023/06/24 04:01:20;;;;;;;;;;;;;;;-140.72;100.00;52470.00;4996727;28;20422;-69
2023/06/24 04:03:46;;;;;;;;;;;;;;;-140.72;100.00;52490.28;4986616;28;19922;-69
2023/06/24 04:06:11;;;;;;;;;;;;;;;-140.72;100.00;52480.16;4994711;28;19922;-69
2023/06/24 04:08:39;;;;;;;;;;;;;;;-140.72;100.00;52518.69;4976670;28;19933;-70
2023/06/24 04:11:06;;;;;;;;;;;;;;;-140.72;100.00;52480.16;4995690;28;19948;-70
2023/06/24 04:13:31;;;;;;;;;;;;;;;-140.72;100.00;52467.97;4991208;28;19917;-69
2023/06/24 04:15:57;;;;;;;;;;;;;;;-140.72;100.00;52447.69;4982020;28;19980;-69
2023/06/24 04:18:22;;;;;;;;;;;;;;;-140.72;100.00;52463.91;4982524;28;20013;-69
2023/06/24 04:20:50;;;;;;;;;;;;;;;-140.72;100.00;52451.72;4977268;28;19930;-69
2023/06/24 04:23:16;;;;;;;;;;;;;;;-140.72;100.00;52474.06;4989201;28;19961;-69
2023/06/24 04:25:42;;;;;;;;;;;;;;;-140.72;100.00;52461.88;4993593;28;19996;-69
2023/06/24 04:28:13;;;;;;;;;;;;;;;-140.72;100.00;52480.16;4983762;28;20315;-69
2023/06/24 04:30:38;;;;;;;;;;;;;;;-140.72;100.00;52463.91;4982058;28;19984;-69
2023/06/24 04:33:04;;;;;;;;;;;;;;;-140.72;100.00;52453.75;4979385;28;19957;-69
2023/06/24 04:35:30;;;;;;;;;;;;;;;-140.72;100.00;52445.66;4978515;28;19929;-68
2023/06/24 04:37:55;;;;;;;;;;;;;;;-140.72;100.00;52425.34;4989441;28;19922;-69
2023/06/24 04:40:20;;;;;;;;;;;;;;;-140.72;100.00;52419.28;4991644;28;20327;-69
2023/06/24 04:42:48;;;;;;;;;;;;;;;-140.72;100.00;52447.69;4979872;28;19922;-69
2023/06/24 04:45:13;;;;;;;;;;;;;;;-140.72;100.00;52445.66;4979837;28;19922;-68
2023/06/24 04:47:39;;;;;;;;;;;;;;;-140.72;100.00;52445.66;4993233;28;19924;-71
2023/06/24 04:50:04;;;;;;;;;;;;;;;-140.72;100.00;52403.03;4989797;28;19969;-71
2023/06/24 04:52:29;;;;;;;;;;;;;;;-140.72;100.00;52445.66;4991676;28;19917;-70
2023/06/24 04:54:55;;;;;;;;;;;;;;;-140.72;100.00;52459.84;4985350;28;19965;-71
2023/06/24 04:57:27;;;;;;;;;;;;;;;-140.72;100.00;52463.91;4974177;28;20355;-71
2023/06/24 04:59:53;;;;;;;;;;;;;;;-140.72;100.00;52451.72;4987669;28;19922;-71
2023/06/24 05:02:18;;;;;;;;;;;;;;;-140.72;100.00;52405.06;4990311;28;20422;-70
2023/06/24 05:04:43;;;;;;;;;;;;;;;-140.72;100.00;52461.88;4981032;28;19929;-70
2023/06/24 05:07:08;;;;;;;;;;;;;;;-140.72;100.00;52417.25;4992320;28;20233;-71
2023/06/24 05:09:40;;;;;;;;;;;;;;;-140.72;100.00;52425.34;4988458;28;20304;-71
2023/06/24 05:12:05;;;;;;;;;;;;;;;-140.72;100.00;52459.84;4991480;28;19922;-71
2023/06/24 05:14:30;;;;;;;;;;;;;;;-140.72;100.00;52459.84;4992853;28;19922;-71
2023/06/24 05:16:56;;;;;;;;;;;;;;;-140.72;100.00;52405.06;4986032;28;19926;-71
2023/06/24 05:19:21;;;;;;;;;;;;;;;-140.72;100.00;52451.72;4989286;28;20012;-71
2023/06/24 05:21:46;;;;;;;;;;;;;;;-140.72;100.00;52435.50;4987486;28;20248;-70
2023/06/24 05:24:11;;;;;;;;;;;;;;;-140.72;100.00;52429.41;4986950;28;20340;-71
2023/06/24 05:26:37;;;;;;;;;;;;;;;-140.72;100.00;52451.72;4991414;28;19941;-68
2023/06/24 05:29:03;;;;;;;;;;;;;;;-140.72;100.00;52411.16;4991595;28;20491;-69
2023/06/24 05:31:28;;;;;;;;;;;;;;;-140.72;100.00;52417.25;4976813;28;19922;-69
2023/06/24 05:33:53;;;;;;;;;;;;;;;-140.72;100.00;52433.47;4993777;28;19972;-70
2023/06/24 05:36:21;;;;;;;;;;;;;;;-140.72;100.00;52427.38;4989350;28;19921;-70
2023/06/24 05:38:48;;;;;;;;;;;;;;;-140.72;100.00;52380.72;4992191;28;19925;-71
2023/06/24 05:41:15;;;;;;;;;;;;;;;-140.72;100.00;52411.16;4989266;28;19940;-71
2023/06/24 05:43:42;;;;;;;;;;;;;;;-140.72;100.00;52429.41;4977883;28;19918;-69
2023/06/24 05:46:07;;;;;;;;;;;;;;;-140.72;100.00;52413.19;4987286;28;20372;-69
2023/06/24 05:48:33;;;;;;;;;;;;;;;-140.72;100.00;52419.28;4989891;28;20056;-69
2023/06/24 05:50:59;;;;;;;;;;;;;;;-140.72;100.00;52427.38;4988302;28;19961;-69
2023/06/24 05:53:24;;;;;;;;;;;;;;;-140.72;100.00;52358.41;4988977;28;19918;-68
2023/06/24 05:55:50;;;;;;;;;;;;;;;-140.72;100.00;52415.22;4988179;28;19928;-69
2023/06/24 05:58:15;;;;;;;;;;;;;;;-140.72;100.00;52380.72;4994538;28;19945;-69
2023/06/24 06:00:40;;;;;;;;;;;;;;;-140.72;100.00;52364.47;4989129;28;20260;-69
2023/06/24 06:03:05;;;;;;;;;;;;;;;-140.72;100.00;52394.91;4994680;28;19921;-69
2023/06/24 06:05:31;;;;;;;;;;;;;;;-140.72;100.00;52386.81;4985680;28;20010;-69
2023/06/24 06:07:56;;;;;;;;;;;;;;;-140.72;100.00;52390.84;4990053;28;20041;-69
2023/06/24 06:10:21;;;;;;;;;;;;;;;-140.72;100.00;52441.59;4978038;28;20319;-69
2023/06/24 06:12:47;;;;;;;;;;;;;;;-140.72;100.00;52394.91;4988463;28;19932;-69
2023/06/24 06:15:12;;;;;;;;;;;;;;;-140.72;100.00;52378.69;4987778;28;20033;-69
2023/06/24 06:17:37;;;;;;;;;;;;;;;-140.72;100.00;52336.06;4986250;28;20016;-69
2023/06/24 06:20:03;;;;;;;;;;;;;;;-140.72;100.00;52368.53;4986496;28;20406;-69
2023/06/24 06:22:28;;;;;;;;;;;;;;;-140.72;100.00;52398.97;4977037;28;20391;-69
2023/06/24 06:24:53;;;;;;;;;;;;;;;-140.72;100.00;52376.66;4994825;28;20004;-69
2023/06/24 06:27:18;;;;;;;;;;;;;;;-140.72;100.00;52380.72;4991347;28;20378;-69
2023/06/24 06:29:43;;;;;;;;;;;;;;;-140.72;100.00;52330.00;4979144;28;20315;-69
2023/06/24 06:32:09;;;;;;;;;;;;;;;-140.72;100.00;52358.41;4992872;28;20055;-69
2023/06/24 06:34:34;;;;;;;;;;;;;;;-140.72;100.00;52386.81;4987436;28;19953;-70
2023/06/24 06:36:59;;;;;;;;;;;;;;;-140.72;100.00;52342.16;4984369;28;19922;-70
2023/06/24 06:39:24;;;;;;;;;;;;;;;-140.72;100.00;52334.03;4981843;28;19921;-70
2023/06/24 06:41:50;;;;;;;;;;;;;;;-140.72;100.00;52338.09;4991891;28;19938;-70
2023/06/24 06:44:15;;;;;;;;;;;;;;;-140.72;100.00;52332.03;4987182;28;19929;-70
2023/06/24 06:46:40;;;;;;;;;;;;;;;-140.72;100.00;52360.44;4985375;28;19940;-70
2023/06/24 06:49:06;;;;;;;;;;;;;;;-140.72;100.00;52317.81;4975258;28;19918;-70
2023/06/24 06:51:31;;;;;;;;;;;;;;;-140.72;100.00;52394.91;4990449;28;20387;-70
2023/06/24 06:53:57;;;;;;;;;;;;;;;-140.72;100.00;52305.63;4973112;28;19922;-70
2023/06/24 06:56:26;;;;;;;;;;;;;;;-140.72;100.00;52358.41;4967119;28;19966;-70
2023/06/24 06:58:52;;;;;;;;;;;;;;;-140.72;100.00;52338.09;4990020;28;19929;-70
2023/06/24 07:01:18;;;;;;;;;;;;;;;-140.72;100.00;52358.41;4979795;28;19929;-70
2023/06/24 07:03:43;;;;;;;;;;;;;;;-140.72;94.77;52313.75;4984907;28;19922;-70
2023/06/24 07:06:08;;;;;;;;;;;;;;;-140.72;83.52;52323.91;4985483;28;19944;-69
2023/06/24 07:08:34;;;;;;;;;;;;;;;-140.72;82.09;52358.41;4981142;28;19957;-70
2023/06/24 07:10:59;;;;;;;;;;;;;;;-140.72;75.15;52301.59;4990880;28;19926;-70
2023/06/24 07:13:24;;;;;;;;;;;;;;;-140.72;68.90;52346.22;4987599;28;19918;-69
2023/06/24 07:15:49;;;;;;;;;;;;;;;-140.72;58.53;52336.06;4985352;28;19922;-69
2023/06/24 07:18:15;;;;;;;;;;;;;;;-140.72;60.64;52344.19;4983578;28;20319;-69
2023/06/24 07:20:40;;;;;;;;;;;;;;;-140.72;51.40;52334.03;4987419;28;19918;-70
2023/06/24 07:23:05;;;;;;;;;;;;;;;-140.72;49.79;52317.81;4972561;28;19926;-69
2023/06/24 07:25:30;;;;;;;;;;;;;;;-140.72;44.18;52309.69;4979416;28;19973;-70
2023/06/24 07:27:56;;;;;;;;;;;;;;;-140.72;34.36;52277.22;4983969;28;19922;-70
2023/06/24 07:30:21;;;;;;;;;;;;;;;-140.72;22.90;52327.97;4987513;28;20462;-69
2023/06/24 07:32:46;;;;;;;;;;;;;;;-140.72;23.00;52293.47;4988781;28;19918;-69
2023/06/24 07:35:13;;;;;;;;;;;;;;;-140.72;22.67;52281.28;4989527;28;19949;-70
2023/06/24 07:37:38;;;;;;;;;;;;;;;-140.72;0.00;52273.19;4984946;28;20336;-70
2023/06/24 07:40:05;;;;;;;;;;;;;;;-140.72;0.00;52305.63;4990156;28;19922;-69
2023/06/24 07:42:30;;;;;;;;;;;;;;;-140.72;0.00;52256.94;4990302;28;19924;-72
2023/06/24 07:44:55;;;;;;;;;;;;;;;-140.72;0.00;52291.44;4986932;28;19922;-71
2023/06/24 07:47:21;;;;;;;;;;;;;;;-140.72;0.00;52273.19;4990098;28;19941;-71
2023/06/24 07:49:46;;;;;;;;;;;;;;;-140.72;0.00;52305.63;4981962;28;19932;-73
2023/06/24 07:52:11;;;;;;;;;;;;;;;-140.72;0.00;52265.06;4984759;28;19922;-72
2023/06/24 07:54:37;;;;;;;;;;;;;;;-140.72;0.00;52238.69;4983977;28;20393;-71
2023/06/24 07:57:02;;;;;;;;;;;;;;;-140.72;0.00;52256.94;4981041;28;19918;-73
2023/06/24 07:59:27;;;;;;;;;;;;;;;-140.72;0.00;52244.78;4989285;28;19961;-71
2023/06/24 08:01:53;;;;;;;;;;;;;;;-140.72;0.00;52261.00;4987087;28;20000;-72
2023/06/24 08:04:18;;;;;;;;;;;;;;;-140.72;0.00;52252.88;4982122;28;19980;-72
2023/06/24 08:06:53;;;;;;;;;;;;;;;-140.72;0.00;52246.78;4989390;28;19918;-72
2023/06/24 08:09:19;;;;;;;;;;;;;;;-140.72;0.00;52230.56;4981139;28;19928;-70
2023/06/24 08:11:44;;;;;;;;;;;;;;;-140.72;0.00;52228.53;4970149;28;20016;-70
2023/06/24 08:14:12;;;;;;;;;;;;;;;-140.72;0.00;52279.25;4976717;28;19937;-82
2023/06/24 08:16:39;;;;;;;;;;;;;;;-140.72;0.00;52232.59;4998202;28;19918;-82
2023/06/24 08:19:05;;;;;;;;;;;;;;;-140.72;0.00;52232.59;4984144;28;20276;-82
2023/06/24 08:21:30;;;;;;;;;;;;;;;-140.72;0.00;52228.53;4982685;28;19937;-81
2023/06/24 08:23:55;;;;;;;;;;;;;;;-140.72;0.00;52220.41;5005572;28;20245;-82
2023/06/24 08:26:21;;;;;;;;;;;;;;;-140.72;0.00;52196.06;4977137;28;20350;-73
2023/06/24 08:29:10;;;;;;;;;;;;;;;-140.72;0.00;52187.97;4987717;28;20452;-72
2023/06/24 08:31:35;;;;;;;;;;;;;;;-140.72;0.00;52198.09;4979251;28;19930;-73
2023/06/24 08:37:07;;;;;;;;;;;;;;;-140.72;0.00;52236.66;4987470;28;19925;-72
2023/06/24 08:39:33;;;;;;;;;;;;;;;-140.72;0.00;52161.56;4993026;28;19922;-75
2023/06/24 08:41:58;;;;;;;;;;;;;;;-140.72;0.00;52194.03;4990247;28;19918;-75
2023/06/24 08:44:24;;;;;;;;;;;;;;;-140.72;0.00;52161.56;4967901;28;19922;-75
2023/06/24 08:46:49;;;;;;;;;;;;;;;-140.72;0.00;52102.75;4976064;28;19933;-75
2023/06/24 08:49:14;;;;;;;;;;;;;;;-140.72;0.00;52153.47;4971373;28;19922;-74
2023/06/24 08:51:40;;;;;;;;;;;;;;;-140.72;0.00;52169.69;4982485;28;19922;-75
2023/06/24 08:54:06;;;;;;;;;;;;;;;-140.72;0.00;52125.06;4991574;28;20399;-75
2023/06/24 08:56:32;;;;;;;;;;;;;;;-140.72;0.00;52114.91;4989784;28;19949;-75
2023/06/24 08:58:57;;;;;;;;;;;;;;;-140.72;0.00;52104.75;4977725;28;19967;-74
2023/06/24 09:01:23;;;;;;;;;;;;;;;-140.72;0.00;52110.84;4992031;28;19957;-75
2023/06/24 09:03:48;;;;;;;;;;;;;;;-140.72;0.00;52052.00;4990552;28;22244;-74
2023/06/24 09:06:13;;;;;;;;;;;;;;;-140.72;0.00;52096.66;4993064;28;19958;-74
2023/06/24 09:08:39;;;;;;;;;;;;;;;-140.72;0.00;52092.59;4976284;28;20009;-72
2023/06/24 09:11:04;;;;;;;;;;;;;;;-140.72;0.00;52080.41;5001058;28;19921;-74
2023/06/24 09:13:36;;;;;;;;;;;;;;;-140.72;0.00;52094.63;4989481;28;20403;-75
2023/06/24 09:16:11;;;;;;;;;;;;;;;-140.72;0.00;52070.28;4980358;28;19945;-75
2023/06/24 09:18:36;;;;;;;;;;;;;;;-140.72;0.00;52068.25;4984245;28;19947;-73
2023/06/24 09:21:03;;;;;;;;;;;;;;;-140.72;0.00;52041.88;4984499;28;19944;-73
2023/06/24 09:23:28;;;;;;;;;;;;;;;-140.72;0.00;52021.56;4997651;28;19921;-72
2023/06/24 09:25:57;;;;;;;;;;;;;;;-140.72;0.00;52062.16;4983818;28;19929;-73
2023/06/24 09:28:25;;;;;;;;;;;;;;;-140.72;0.00;51995.19;4981930;28;19922;-71
2023/06/24 09:31:06;;;;;;;;;;;;;;;-140.72;0.00;52001.28;4979634;28;21474;-72
2023/06/24 09:33:31;;;;;;;;;;;;;;;-140.72;0.00;52011.44;4973347;28;20057;-73
2023/06/24 09:35:56;;;;;;;;;;;;;;;-140.72;0.00;51997.22;4982952;28;20005;-74
2023/06/24 09:38:31;;;;;;;;;;;;;;;-140.72;0.00;51978.97;4974437;28;19929;-72
2023/06/24 09:41:02;;;;;;;;;;;;;;;-140.72;0.00;51972.88;4983443;28;19922;-74
2023/06/24 09:44:03;;;;;;;;;;;;;;;-140.72;0.00;51936.38;4985199;28;19922;-73
2023/06/24 09:46:30;;;;;;;;;;;;;;;-140.72;0.00;51968.81;4982080;28;19977;-73
2023/06/24 09:48:55;;;;;;;;;;;;;;;-140.72;0.00;51985.06;4985958;28;19922;-73
2023/06/24 09:51:22;;;;;;;;;;;;;;;-140.72;0.00;52005.34;4982214;28;20049;-73
2023/06/24 09:53:48;;;;;;;;;;;;;;;-140.72;0.00;51956.66;4959481;28;19933;-73
2023/06/24 09:56:15;;;;;;;;;;;;;;;-140.72;0.00;51932.31;4970274;28;19929;-73
2023/06/24 09:58:41;;;;;;;;;;;;;;;-140.72;0.00;51956.66;4983850;28;19918;-74
2023/06/24 10:01:06;;;;;;;;;;;;;;;-140.72;0.00;51932.31;4985999;28;19918;-73
2023/06/24 10:03:36;;;;;;;;;;;;;;;-140.72;0.00;51857.25;4977179;28;20123;-73
2023/06/24 10:06:02;;;;;;;;;;;;;;;-140.72;0.00;51871.44;4985386;28;19917;-72
2023/06/24 10:08:30;;;;;;;;;;;;;;;-140.72;0.00;51794.34;4980175;28;19921;-72
2023/06/24 10:10:55;;;;;;;;;;;;;;;-140.72;0.00;51794.34;4978553;28;19977;-72
2023/06/24 10:13:20;;;;;;;;;;;;;;;-140.72;0.00;51830.88;4977824;28;19933;-73
2023/06/24 10:15:45;;;;;;;;;;;;;;;-140.72;0.00;51794.34;4981261;28;20316;-72
2023/06/24 10:18:29;;;;;;;;;;;;;;;-140.72;0.00;51834.91;4979944;28;20360;-72
2023/06/24 10:20:55;;;;;;;;;;;;;;;-140.72;0.00;51843.03;4982693;28;20304;-73
2023/06/24 10:23:20;;;;;;;;;;;;;;;-140.72;0.00;51832.91;4989667;28;19918;-72
2023/06/24 10:25:47;;;;;;;;;;;;;;;-140.72;0.00;51832.91;4974645;28;19983;-73
2023/06/24 10:28:12;;;;;;;;;;;;;;;-140.72;0.00;51814.63;4982289;28;19923;-73
2023/06/24 10:30:37;;;;;;;;;;;;;;;-140.72;0.00;51820.72;4989006;28;19967;-73
2023/06/24 10:33:02;;;;;;;;;;;;;;;-140.72;0.00;51812.59;4992408;28;20269;-73
2023/06/24 10:35:32;;;;;;;;;;;;;;;-140.72;0.00;51824.78;4986646;28;19918;-72
2023/06/24 10:37:58;;;;;;;;;;;;;;;-140.72;0.00;51733.47;4979382;28;20072;-72
2023/06/24 10:40:40;;;;;;;;;;;;;;;-140.72;0.00;51751.75;4987925;28;19929;-72
2023/06/24 10:43:24;;;;;;;;;;;;;;;-140.72;0.00;51747.69;4986009;28;19929;-72
2023/06/24 10:46:01;;;;;;;;;;;;;;;-140.72;0.00;51765.94;4982989;28;19918;-72
2023/06/24 10:48:26;;;;;;;;;;;;;;;-140.72;0.00;51784.19;4971344;28;19933;-72
2023/06/24 10:53:54;;;;;;;;;;;;;;;-140.72;0.00;51782.16;4983276;28;19925;-72
2023/06/24 10:56:20;;;;;;;;;;;;;;;-140.72;0.00;51731.44;4988675;28;19922;-73
2023/06/24 10:58:54;;;;;;;;;;;;;;;-140.72;0.00;51696.97;4992121;28;19918;-74
2023/06/24 11:01:21;;;;;;;;;;;;;;;-140.72;0.00;51705.06;4989834;28;19922;-73
2023/06/24 11:03:46;;;;;;;;;;;;;;;-140.72;0.00;51701.03;4993518;28;20111;-74
2023/06/24 11:06:12;;;;;;;;;;;;;;;-140.72;0.00;51711.16;4992104;28;20068;-74
2023/06/24 11:08:42;;;;;;;;;;;;;;;-140.72;0.00;51694.94;4979178;28;20248;-74
2023/06/24 11:11:08;;;;;;;;;;;;;;;-140.72;0.00;51729.44;4990295;28;19921;-74
2023/06/24 11:13:33;;;;;;;;;;;;;;;-140.72;0.00;51591.47;4982428;28;19926;-74
2023/06/24 11:16:00;;;;;;;;;;;;;;;-140.72;0.00;51654.34;4981522;28;19925;-73
2023/06/24 11:18:25;;;;;;;;;;;;;;;-140.72;0.00;51650.31;4971139;28;19977;-74
2023/06/24 11:20:53;;;;;;;;;;;;;;;-140.72;0.00;51670.59;4962662;28;19997;-75
2023/06/24 11:23:20;;;;;;;;;;;;;;;-140.72;0.00;51680.72;4984780;28;20431;-76
2023/06/24 11:25:46;;;;;;;;;;;;;;;-140.72;0.00;51591.47;4987121;28;19930;-77
2023/06/24 11:28:15;;;;;;;;;;;;;;;-140.72;0.00;51619.88;4965256;28;20369;-77
2023/06/24 11:30:40;;;;;;;;;;;;;;;-140.72;0.00;51672.63;4970609;28;20284;-77
2023/06/24 11:33:05;;;;;;;;;;;;;;;-140.72;0.00;51640.16;4967848;28;19937;-76
2023/06/24 11:35:35;;;;;;;;;;;;;;;-140.72;0.00;51632.03;4973612;28;19929;-76
2023/06/24 11:38:00;;;;;;;;;;;;;;;-140.72;0.00;51638.13;4985505;28;19918;-74
2023/06/24 11:40:25;;;;;;;;;;;;;;;-140.72;0.00;51615.81;4991091;28;20009;-74
2023/06/24 11:42:50;;;;;;;;;;;;;;;-140.72;0.00;51656.38;4989294;28;19984;-75
2023/06/24 11:45:19;;;;;;;;;;;;;;;-140.72;0.00;51656.38;4972165;28;20317;-76
2023/06/24 11:47:44;;;;;;;;;;;;;;;-140.72;0.00;51591.47;4976144;28;20012;-75
2023/06/24 11:50:15;;;;;;;;;;;;;;;-140.72;0.00;51561.03;4988924;28;19961;-75
2023/06/24 11:52:42;;;;;;;;;;;;;;;-140.72;0.00;51530.59;4996658;28;19968;-77
2023/06/24 11:55:13;;;;;;;;;;;;;;;-140.72;0.00;51552.94;4995749;28;19922;-75
2023/06/24 11:57:51;;;;;;;;;;;;;;;-140.72;0.00;51585.38;4988715;28;19922;-76
2023/06/24 12:00:19;;;;;;;;;;;;;;;-140.72;0.00;51542.78;4986058;28;19922;-76
2023/06/24 12:02:44;;;;;;;;;;;;;;;-140.72;0.00;51573.22;5006533;28;19926;-78
2023/06/24 12:05:09;;;;;;;;;;;;;;;-140.72;0.00;51648.28;4973881;28;19917;-77
2023/06/24 12:07:35;;;;;;;;;;;;;;;-140.72;0.00;51536.69;4979472;28;19918;-76
2023/06/24 12:10:00;;;;;;;;;;;;;;;-140.72;0.00;51508.28;4990396;28;19924;-75
2023/06/24 12:12:25;;;;;;;;;;;;;;;-140.72;0.00;51498.16;4995621;28;20379;-75
2023/06/24 12:14:50;;;;;;;;;;;;;;;-140.72;0.00;51502.22;4979277;28;19925;-75
2023/06/24 12:17:16;;;;;;;;;;;;;;;-140.72;0.00;51567.13;4995010;28;20430;-75
2023/06/24 12:19:42;;;;;;;;;;;;;;;-140.72;0.00;51559.00;4964921;28;19973;-75
2023/06/24 12:22:07;;;;;;;;;;;;;;;-140.72;0.00;51634.06;4990321;28;19929;-75
2023/06/24 12:24:33;;;;;;;;;;;;;;;-140.72;0.00;51717.25;4990106;28;19922;-73
2023/06/24 12:26:58;;;;;;;;;;;;;;;-140.72;0.00;51690.88;4989790;28;19926;-75
2023/06/24 12:29:23;;;;;;;;;;;;;;;-140.72;0.00;51625.97;4990425;28;19918;-74